createdAt,value
2018-11-11T00:00:24.169Z,68.83
2018-11-11T00:02:55.197Z,68.21
2018-11-11T00:05:24.611Z,69.86
2018-11-11T00:07:53.704Z,69.57
2018-11-11T00:10:22.736Z,68.75
2018-11-11T00:12:51.883Z,70.08
2018-11-11T00:15:21.111Z,68.47
2018-11-11T00:17:51.620Z,68.72
2018-11-11T00:20:20.659Z,68.58
2018-11-11T00:22:49.688Z,68.32
2018-11-11T00:25:18.995Z,68.21
2018-11-11T00:27:48.138Z,68.11
2018-11-11T00:30:18.414Z,68.59
2018-11-11T00:32:47.671Z,68.03
2018-11-11T00:35:16.789Z,68.21
2018-11-11T00:37:46.917Z,68.23
2018-11-11T00:40:16.542Z,68.07
2018-11-11T00:42:46.156Z,68.18
2018-11-11T00:45:16.015Z,68.46
2018-11-11T00:47:46.329Z,68.31
2018-11-11T00:50:15.619Z,68.31
2018-11-11T00:52:44.625Z,68.45
2018-11-11T00:55:16.490Z,68.44
2018-11-11T00:57:45.895Z,67.41
2018-11-11T01:00:19.045Z,68.43
2018-11-11T01:02:48.689Z,70.40
2018-11-11T01:05:22.420Z,72.78
2018-11-11T01:07:55.183Z,69.48
2018-11-11T01:10:31.085Z,68.28
2018-11-11T01:13:01.067Z,68.56
2018-11-11T01:15:31.577Z,68.40
2018-11-11T01:18:00.737Z,67.95
2018-11-11T01:20:30.137Z,67.96
2018-11-11T01:22:59.671Z,67.97
2018-11-11T01:25:28.672Z,69.00
2018-11-11T01:27:58.519Z,69.38
2018-11-11T01:30:27.517Z,67.98
2018-11-11T01:32:57.121Z,68.21
2018-11-11T01:35:26.312Z,67.76
2018-11-11T01:37:55.374Z,68.14
2018-11-11T01:40:24.428Z,67.90
2018-11-11T01:42:53.462Z,68.15
2018-11-11T01:45:22.483Z,67.61
2018-11-11T01:47:51.461Z,67.64
2018-11-11T01:50:20.453Z,68.55
2018-11-11T01:52:49.922Z,68.02
2018-11-11T01:55:18.917Z,68.08
2018-11-11T01:57:48.428Z,70.68
2018-11-11T02:00:18.805Z,69.20
2018-11-11T02:02:48.664Z,68.64
2018-11-11T02:05:17.641Z,68.01
2018-11-11T02:07:47.362Z,68.06
2018-11-11T02:10:17.117Z,68.10
2018-11-11T02:12:47.103Z,68.33
2018-11-11T02:15:17.366Z,68.04
2018-11-11T02:17:46.382Z,67.89
2018-11-11T02:20:17.449Z,68.48
2018-11-11T02:22:47.379Z,68.20
2018-11-11T02:25:16.385Z,68.50
2018-11-11T02:27:45.677Z,67.65
2018-11-11T02:30:16.130Z,68.78
2018-11-11T02:32:45.709Z,68.30
2018-11-11T02:35:14.931Z,68.19
2018-11-11T02:37:44.246Z,68.59
2018-11-11T02:40:15.840Z,68.64
2018-11-11T02:42:45.262Z,68.23
2018-11-11T02:45:15.525Z,68.65
2018-11-11T02:47:44.515Z,68.42
2018-11-11T02:50:14.603Z,68.14
2018-11-11T02:52:44.228Z,68.32
2018-11-11T02:55:13.913Z,72.03
2018-11-11T02:57:43.631Z,69.36
2018-11-11T03:00:15.350Z,68.15
2018-11-11T03:02:45.111Z,68.86
2018-11-11T03:05:15.219Z,68.22
2018-11-11T03:07:44.736Z,69.09
2018-11-11T03:10:14.657Z,68.42
2018-11-11T03:12:44.854Z,68.22
2018-11-11T03:15:15.037Z,67.71
2018-11-11T03:17:44.090Z,68.41
2018-11-11T03:20:13.675Z,68.69
2018-11-11T03:22:42.687Z,68.15
2018-11-11T03:25:13.197Z,67.92
2018-11-11T03:27:42.509Z,68.13
2018-11-11T03:30:13.151Z,66.99
2018-11-11T03:32:42.234Z,68.32
2018-11-11T03:35:12.330Z,67.44
2018-11-11T03:37:41.768Z,67.90
2018-11-11T03:40:16.333Z,68.18
2018-11-11T03:42:46.180Z,69.79
2018-11-11T03:45:17.183Z,68.66
2018-11-11T03:47:47.467Z,67.79
2018-11-11T03:50:16.448Z,67.07
2018-11-11T03:52:45.765Z,68.20
2018-11-11T03:55:14.737Z,68.43
2018-11-11T03:57:43.722Z,69.45
2018-11-11T04:00:14.545Z,69.37
2018-11-11T04:02:43.568Z,67.45
2018-11-11T04:05:14.109Z,68.63
2018-11-11T04:07:43.114Z,67.36
2018-11-11T04:10:14.764Z,67.81
2018-11-11T04:12:44.960Z,67.59
2018-11-11T04:15:15.301Z,67.86
2018-11-11T04:17:44.502Z,67.31
2018-11-11T04:20:15.043Z,69.09
2018-11-11T04:22:44.030Z,70.78
2018-11-11T04:25:13.633Z,70.86
2018-11-11T04:27:42.881Z,69.14
2018-11-11T04:30:13.369Z,68.13
2018-11-11T04:32:42.609Z,67.73
2018-11-11T04:35:11.964Z,68.29
2018-11-11T04:37:41.121Z,67.12
2018-11-11T04:40:11.965Z,67.97
2018-11-11T04:42:41.083Z,68.44
2018-11-11T04:45:12.852Z,66.96
2018-11-11T04:47:42.983Z,66.97
2018-11-11T04:50:13.489Z,67.15
2018-11-11T04:52:42.933Z,67.17
2018-11-11T04:55:12.177Z,67.14
2018-11-11T04:57:41.913Z,67.17
2018-11-11T05:00:12.480Z,68.25
2018-11-11T05:02:41.713Z,67.13
2018-11-11T05:05:12.141Z,67.44
2018-11-11T05:07:41.488Z,68.71
2018-11-11T05:10:10.956Z,67.43
2018-11-11T05:12:40.145Z,69.78
2018-11-11T05:15:10.920Z,68.31
2018-11-11T05:17:39.903Z,67.36
2018-11-11T05:20:10.539Z,67.41
2018-11-11T05:22:39.525Z,67.36
2018-11-11T05:25:10.991Z,66.65
2018-11-11T05:27:40.404Z,67.20
2018-11-11T05:30:10.993Z,66.91
2018-11-11T05:32:40.492Z,67.38
2018-11-11T05:35:10.557Z,66.47
2018-11-11T05:37:39.867Z,67.12
2018-11-11T05:40:09.770Z,66.92
2018-11-11T05:42:39.067Z,67.12
2018-11-11T05:45:09.882Z,66.91
2018-11-11T05:47:39.116Z,67.11
2018-11-11T05:50:10.654Z,66.94
2018-11-11T05:52:39.978Z,68.28
2018-11-11T05:55:09.276Z,69.22
2018-11-11T05:57:38.269Z,70.94
2018-11-11T06:00:10.365Z,68.76
2018-11-11T06:02:39.614Z,69.48
2018-11-11T06:05:11.012Z,67.60
2018-11-11T06:07:40.290Z,67.40
2018-11-11T06:10:11.437Z,68.36
2018-11-11T06:12:40.463Z,67.55
2018-11-11T06:15:11.434Z,67.71
2018-11-11T06:17:40.410Z,69.24
2018-11-11T06:20:12.678Z,69.23
2018-11-11T06:22:41.654Z,71.56
2018-11-11T06:25:11.342Z,71.89
2018-11-11T06:27:40.406Z,70.46
2018-11-11T06:30:11.051Z,69.29
2018-11-11T06:32:40.077Z,68.06
2018-11-11T06:35:09.084Z,68.85
2018-11-11T06:37:38.533Z,68.19
2018-11-11T06:40:09.800Z,67.57
2018-11-11T06:42:39.501Z,68.13
2018-11-11T06:45:10.434Z,67.17
2018-11-11T06:47:41.143Z,68.29
2018-11-11T06:50:11.806Z,69.63
2018-11-11T06:52:41.788Z,68.96
2018-11-11T06:55:11.029Z,70.24
2018-11-11T06:57:40.320Z,70.39
2018-11-11T07:00:12.523Z,70.91
2018-11-11T07:02:57.360Z,68.79
2018-11-11T07:05:26.341Z,67.85
2018-11-11T07:07:55.412Z,68.50
2018-11-11T07:10:24.408Z,68.58
2018-11-11T07:12:53.634Z,68.67
2018-11-11T07:15:22.870Z,68.70
2018-11-11T07:17:51.940Z,67.89
2018-11-11T07:20:20.954Z,68.41
2018-11-11T07:22:50.035Z,69.38
2018-11-11T07:25:19.008Z,68.18
2018-11-11T07:27:48.039Z,68.45
2018-11-11T07:30:17.029Z,70.86
2018-11-11T07:32:46.006Z,69.08
2018-11-11T07:35:15.466Z,69.12
2018-11-11T07:37:44.518Z,68.21
2018-11-11T07:40:14.829Z,68.67
2018-11-11T07:42:44.036Z,68.09
2018-11-11T07:45:13.175Z,68.40
2018-11-11T07:47:42.207Z,68.99
2018-11-11T07:50:11.765Z,67.87
2018-11-11T07:52:40.767Z,67.63
2018-11-11T07:55:11.628Z,68.00
2018-11-11T07:57:41.098Z,68.56
2018-11-11T08:00:12.507Z,68.50
2018-11-11T08:02:41.574Z,68.33
2018-11-11T08:05:10.605Z,68.31
2018-11-11T08:07:39.857Z,68.18
2018-11-11T08:10:26.090Z,67.82
2018-11-11T08:12:55.067Z,71.24
2018-11-11T08:15:24.102Z,71.47
2018-11-11T08:17:53.067Z,70.62
2018-11-11T08:20:22.041Z,68.67
2018-11-11T08:22:51.129Z,68.19
2018-11-11T08:25:20.411Z,67.66
2018-11-11T08:27:49.410Z,67.57
2018-11-11T08:30:18.442Z,67.08
2018-11-11T08:32:47.515Z,69.95
2018-11-11T08:35:17.714Z,71.35
2018-11-11T08:37:46.716Z,68.60
2018-11-11T08:40:16.095Z,68.71
2018-11-11T08:42:46.978Z,67.87
2018-11-11T08:45:16.496Z,68.03
2018-11-11T08:47:46.983Z,68.03
2018-11-11T08:50:17.042Z,67.59
2018-11-11T08:52:47.376Z,68.41
2018-11-11T08:55:16.424Z,68.01
2018-11-11T08:57:45.605Z,69.69
2018-11-11T09:00:15.395Z,70.16
2018-11-11T09:02:44.467Z,67.61
2018-11-11T09:05:13.553Z,68.48
2018-11-11T09:07:43.035Z,67.63
2018-11-11T09:10:12.765Z,67.10
2018-11-11T09:12:41.765Z,70.59
2018-11-11T09:15:12.639Z,72.96
2018-11-11T09:17:42.318Z,68.92
2018-11-11T09:20:11.957Z,67.73
2018-11-11T09:22:41.254Z,66.85
2018-11-11T09:25:10.672Z,66.99
2018-11-11T09:27:40.995Z,67.09
2018-11-11T09:30:12.559Z,67.98
2018-11-11T09:32:41.742Z,69.05
2018-11-11T09:35:11.315Z,70.83
2018-11-11T09:37:40.666Z,68.93
2018-11-11T09:40:11.069Z,70.53
2018-11-11T09:42:40.140Z,70.36
2018-11-11T09:45:12.430Z,69.32
2018-11-11T09:47:41.764Z,71.67
2018-11-11T09:50:12.878Z,70.00
2018-11-11T09:52:42.179Z,71.24
2018-11-11T09:55:12.408Z,69.56
2018-11-11T09:57:41.916Z,67.92
2018-11-11T10:00:14.265Z,68.85
2018-11-11T10:02:44.701Z,69.38
2018-11-11T10:05:19.447Z,68.85
2018-11-11T10:07:59.264Z,69.74
2018-11-11T10:10:40.646Z,69.92
2018-11-11T10:13:22.851Z,69.62
2018-11-11T10:16:01.401Z,70.30
2018-11-11T10:18:36.521Z,72.03
2018-11-11T10:21:10.338Z,69.50
2018-11-11T10:23:43.713Z,70.66
2018-11-11T10:26:22.266Z,69.84
2018-11-11T10:29:07.605Z,74.75
2018-11-11T10:32:09.204Z,72.86
2018-11-11T10:34:43.857Z,70.57
2018-11-11T10:37:15.706Z,70.13
2018-11-11T10:39:50.209Z,70.11
2018-11-11T10:42:23.518Z,70.27
2018-11-11T10:44:57.901Z,70.11
2018-11-11T10:47:38.555Z,70.36
2018-11-11T10:50:11.531Z,70.76
2018-11-11T10:52:40.527Z,70.14
2018-11-11T10:55:09.762Z,70.26
2018-11-11T10:57:38.782Z,69.92
2018-11-11T11:00:13.188Z,69.99
2018-11-11T11:02:47.744Z,69.82
2018-11-11T11:05:16.742Z,70.36
2018-11-11T11:07:46.098Z,70.18
2018-11-11T11:10:15.240Z,69.66
2018-11-11T11:12:44.285Z,69.56
2018-11-11T11:15:13.295Z,69.93
2018-11-11T11:17:42.389Z,69.56
2018-11-11T11:20:11.386Z,69.60
2018-11-11T11:22:40.435Z,69.92
2018-11-11T11:25:10.903Z,70.25
2018-11-11T11:27:41.425Z,71.22
2018-11-11T11:30:12.581Z,70.64
2018-11-11T11:32:41.822Z,70.20
2018-11-11T11:35:11.391Z,70.20
2018-11-11T11:37:40.699Z,70.07
2018-11-11T11:40:10.386Z,70.45
2018-11-11T11:42:39.732Z,70.72
2018-11-11T11:45:10.429Z,70.83
2018-11-11T11:47:39.443Z,70.53
2018-11-11T11:50:11.078Z,70.90
2018-11-11T11:52:40.170Z,70.71
2018-11-11T11:55:09.990Z,74.99
2018-11-11T11:57:38.969Z,72.72
2018-11-11T12:00:11.215Z,71.75
2018-11-11T12:02:40.651Z,73.31
2018-11-11T12:05:10.265Z,72.15
2018-11-11T12:07:39.461Z,72.62
2018-11-11T12:10:10.304Z,76.93
2018-11-11T12:12:39.319Z,72.88
2018-11-11T12:15:09.419Z,73.25
2018-11-11T12:17:39.012Z,73.26
2018-11-11T12:20:08.513Z,73.62
2018-11-11T12:22:37.662Z,73.24
2018-11-11T12:25:07.754Z,74.48
2018-11-11T12:27:37.006Z,76.12
2018-11-11T12:30:07.661Z,76.97
2018-11-11T12:32:36.886Z,80.64
2018-11-11T12:35:06.425Z,78.09
2018-11-11T12:37:35.414Z,75.27
2018-11-11T12:40:05.057Z,75.25
2018-11-11T12:42:33.845Z,75.25
2018-11-11T12:45:02.938Z,76.95
2018-11-11T12:47:31.912Z,77.36
2018-11-11T12:50:00.878Z,74.11
2018-11-11T12:52:29.856Z,73.56
2018-11-11T12:54:58.835Z,72.89
2018-11-11T12:57:27.891Z,72.71
2018-11-11T12:59:56.894Z,73.06
2018-11-11T13:02:26.134Z,72.66
2018-11-11T13:04:55.570Z,74.29
2018-11-11T13:07:24.542Z,77.98
2018-11-11T13:09:53.824Z,75.36
2018-11-11T13:12:22.928Z,73.41
2018-11-11T13:14:51.777Z,72.56
2018-11-11T13:17:20.853Z,72.81
2018-11-11T13:19:49.865Z,72.36
2018-11-11T13:22:18.855Z,72.47
2018-11-11T13:24:47.815Z,72.50
2018-11-11T13:27:17.075Z,72.78
2018-11-11T13:29:46.174Z,72.15
2018-11-11T13:32:15.157Z,72.81
2018-11-11T13:34:44.137Z,74.08
2018-11-11T13:37:13.120Z,72.24
2018-11-11T13:39:42.104Z,72.12
2018-11-11T13:42:11.090Z,72.34
2018-11-11T13:44:40.126Z,72.64
2018-11-11T13:47:09.053Z,76.57
2018-11-11T13:49:38.016Z,73.71
2018-11-11T13:52:07.002Z,73.23
2018-11-11T13:54:36.428Z,73.60
2018-11-11T13:57:06.834Z,73.08
2018-11-11T13:59:35.955Z,72.82
2018-11-11T14:02:05.350Z,73.99
2018-11-11T14:04:34.331Z,72.92
2018-11-11T14:07:03.760Z,72.76
2018-11-11T14:09:32.815Z,73.27
2018-11-11T14:12:01.812Z,72.77
2018-11-11T14:14:31.074Z,73.12
2018-11-11T14:17:00.067Z,73.16
2018-11-11T14:19:29.328Z,73.08
2018-11-11T14:21:58.258Z,73.35
2018-11-11T14:24:27.243Z,73.22
2018-11-11T14:26:56.240Z,74.07
2018-11-11T14:29:25.335Z,73.90
2018-11-11T14:31:54.322Z,74.42
2018-11-11T14:34:23.355Z,74.85
2018-11-11T14:36:52.475Z,74.30
2018-11-11T14:39:21.501Z,73.96
2018-11-11T14:41:50.473Z,74.37
2018-11-11T14:44:19.779Z,74.57
2018-11-11T14:46:48.819Z,74.25
2018-11-11T14:49:18.080Z,74.12
2018-11-11T14:51:47.082Z,74.40
2018-11-11T14:54:16.322Z,74.32
2018-11-11T14:56:45.292Z,74.75
2018-11-11T14:59:14.583Z,75.20
2018-11-11T15:01:43.610Z,74.80
2018-11-11T15:04:13.062Z,74.40
2018-11-11T15:06:42.053Z,74.19
2018-11-11T15:09:12.488Z,79.26
2018-11-11T15:11:42.235Z,77.49
2018-11-11T15:14:11.811Z,75.60
2018-11-11T15:16:41.363Z,74.93
2018-11-11T15:19:10.439Z,80.08
2018-11-11T15:21:39.551Z,77.16
2018-11-11T15:24:09.403Z,75.85
2018-11-11T15:26:38.375Z,76.91
2018-11-11T15:29:07.396Z,78.17
2018-11-11T15:31:36.375Z,76.73
2018-11-11T15:34:05.695Z,76.11
2018-11-11T15:36:34.910Z,77.96
2018-11-11T15:39:05.549Z,75.52
2018-11-11T15:41:34.559Z,75.23
2018-11-11T15:44:03.724Z,75.28
2018-11-11T15:46:33.228Z,74.55
2018-11-11T15:49:02.439Z,76.82
2018-11-11T15:51:31.405Z,76.05
2018-11-11T15:54:00.392Z,76.57
2018-11-11T15:56:29.665Z,74.73
2018-11-11T15:58:58.701Z,74.78
2018-11-11T16:01:27.776Z,74.69
2018-11-11T16:03:56.794Z,74.44
2018-11-11T16:06:26.156Z,74.57
2018-11-11T16:08:55.097Z,75.14
2018-11-11T16:11:24.105Z,74.29
2018-11-11T16:13:53.160Z,75.05
2018-11-11T16:16:22.114Z,74.37
2018-11-11T16:18:51.104Z,74.43
2018-11-11T16:21:20.149Z,74.16
2018-11-11T16:23:49.127Z,75.95
2018-11-11T16:26:18.144Z,74.50
2018-11-11T16:28:49.159Z,74.22
2018-11-11T16:31:18.498Z,74.12
2018-11-11T16:33:47.539Z,73.91
2018-11-11T16:36:16.586Z,75.81
2018-11-11T16:38:45.595Z,75.28
2018-11-11T16:41:15.013Z,75.98
2018-11-11T16:43:43.874Z,74.26
2018-11-11T16:46:13.626Z,73.95
2018-11-11T16:48:42.944Z,75.33
2018-11-11T16:51:12.258Z,74.00
2018-11-11T16:53:41.228Z,74.37
2018-11-11T16:56:10.206Z,77.48
2018-11-11T16:58:39.209Z,79.46
2018-11-11T17:01:08.210Z,75.66
2018-11-11T17:03:37.212Z,74.88
2018-11-11T17:06:07.280Z,74.64
2018-11-11T17:08:36.309Z,74.75
2018-11-11T17:11:05.361Z,74.54
2018-11-11T17:13:34.628Z,74.07
2018-11-11T17:16:03.654Z,74.38
2018-11-11T17:18:32.654Z,74.80
2018-11-11T17:21:01.999Z,74.23
2018-11-11T17:23:31.299Z,76.50
2018-11-11T17:26:00.299Z,74.75
2018-11-11T17:28:29.302Z,74.57
2018-11-11T17:30:58.311Z,74.28
2018-11-11T17:33:27.329Z,74.23
2018-11-11T17:35:56.349Z,73.74
2018-11-11T17:38:25.581Z,74.30
2018-11-11T17:40:54.573Z,74.21
2018-11-11T17:43:23.613Z,73.96
2018-11-11T17:45:52.578Z,76.39
2018-11-11T17:48:21.589Z,74.52
2018-11-11T17:50:50.963Z,74.79
2018-11-11T17:53:20.004Z,73.84
2018-11-11T17:55:49.086Z,73.89
2018-11-11T17:58:18.030Z,74.24
2018-11-11T18:00:47.010Z,74.29
2018-11-11T18:03:16.911Z,74.42
2018-11-11T18:05:45.811Z,73.99
2018-11-11T18:08:14.853Z,73.58
2018-11-11T18:10:44.206Z,73.76
2018-11-11T18:13:13.098Z,73.64
2018-11-11T18:15:42.332Z,74.05
2018-11-11T18:18:11.546Z,73.49
2018-11-11T18:20:40.677Z,73.40
2018-11-11T18:23:09.771Z,73.27
2018-11-11T18:25:38.809Z,73.69
2018-11-11T18:28:07.975Z,73.30
2018-11-11T18:30:36.827Z,72.48
2018-11-11T18:33:06.358Z,75.07
2018-11-11T18:35:35.409Z,73.24
2018-11-11T18:38:04.536Z,72.74
2018-11-11T18:40:33.543Z,72.51
2018-11-11T18:43:02.559Z,72.06
2018-11-11T18:45:31.763Z,72.79
2018-11-11T18:48:01.175Z,74.24
2018-11-11T18:50:31.576Z,72.79
2018-11-11T18:53:00.857Z,75.66
2018-11-11T18:55:30.291Z,75.06
2018-11-11T18:57:59.327Z,78.13
2018-11-11T19:00:29.924Z,74.11
2018-11-11T19:02:59.093Z,76.98
2018-11-11T19:05:28.536Z,74.60
2018-11-11T19:07:57.705Z,78.03
2018-11-11T19:10:29.174Z,78.48
2018-11-11T19:13:00.802Z,75.97
2018-11-11T19:15:29.940Z,73.50
2018-11-11T19:17:58.972Z,72.62
2018-11-11T19:20:28.409Z,75.93
2018-11-11T19:22:57.792Z,73.46
2018-11-11T19:25:28.051Z,76.18
2018-11-11T19:27:57.964Z,73.11
2018-11-11T19:30:27.832Z,72.65
2018-11-11T19:32:57.053Z,73.04
2018-11-11T19:35:26.799Z,72.62
2018-11-11T19:37:56.990Z,72.14
2018-11-11T19:40:27.274Z,72.54
2018-11-11T19:42:57.799Z,72.79
2018-11-11T19:45:28.347Z,72.57
2018-11-11T19:47:58.433Z,72.21
2018-11-11T19:50:28.470Z,72.67
2018-11-11T19:53:04.446Z,72.87
2018-11-11T19:55:33.518Z,72.51
2018-11-11T19:58:02.604Z,73.29
2018-11-11T20:00:32.694Z,72.94
2018-11-11T20:03:03.443Z,72.72
2018-11-11T20:05:33.866Z,72.40
2018-11-11T20:08:03.249Z,72.87
2018-11-11T20:10:32.610Z,73.08
2018-11-11T20:13:02.378Z,74.59
2018-11-11T20:15:33.155Z,73.41
2018-11-11T20:18:02.226Z,72.70
2018-11-11T20:20:33.988Z,72.75
2018-11-11T20:23:03.250Z,72.60
2018-11-11T20:25:32.270Z,72.24
2018-11-11T20:28:01.370Z,72.82
2018-11-11T20:30:31.970Z,73.17
2018-11-11T20:33:01.078Z,72.62
2018-11-11T20:35:31.134Z,73.25
2018-11-11T20:38:00.096Z,72.52
2018-11-11T20:40:29.817Z,72.82
2018-11-11T20:42:59.353Z,72.29
2018-11-11T20:45:29.836Z,72.55
2018-11-11T20:47:58.921Z,72.39
2018-11-11T20:50:29.141Z,73.10
2018-11-11T20:53:00.608Z,73.19
2018-11-11T20:55:29.643Z,75.00
2018-11-11T20:57:59.022Z,75.13
2018-11-11T21:00:31.273Z,72.90
2018-11-11T21:03:00.270Z,72.60
2018-11-11T21:05:29.608Z,73.03
2018-11-11T21:07:59.105Z,72.32
2018-11-11T21:10:28.875Z,72.13
2018-11-11T21:12:58.283Z,72.28
2018-11-11T21:15:28.695Z,72.70
2018-11-11T21:17:57.850Z,72.39
2018-11-11T21:21:31.176Z,71.96
2018-11-11T21:24:00.160Z,73.25
2018-11-11T21:26:29.162Z,72.40
2018-11-11T21:28:59.097Z,72.88
2018-11-11T21:31:28.321Z,72.12
2018-11-11T21:33:57.994Z,72.32
2018-11-11T21:36:27.158Z,77.06
2018-11-11T21:38:56.217Z,76.68
2018-11-11T21:41:25.344Z,79.17
2018-11-11T21:43:54.881Z,72.42
2018-11-11T21:46:23.871Z,71.57
2018-11-11T21:48:53.237Z,74.11
2018-11-11T21:51:22.475Z,73.28
2018-11-11T21:53:52.066Z,70.70
2018-11-11T21:56:21.203Z,71.17
2018-11-11T21:58:50.329Z,70.31
2018-11-11T22:01:19.406Z,72.73
2018-11-11T22:03:48.619Z,72.25
2018-11-11T22:06:17.826Z,70.80
2018-11-11T22:08:47.103Z,72.71
2018-11-11T22:11:16.298Z,72.27
2018-11-11T22:13:46.500Z,72.13
2018-11-11T22:16:15.497Z,72.33
2018-11-11T22:18:44.631Z,70.37
2018-11-11T22:21:13.645Z,70.78
2018-11-11T22:23:42.715Z,70.83
2018-11-11T22:26:14.093Z,71.08
2018-11-11T22:28:43.322Z,71.72
2018-11-11T22:31:12.385Z,71.62
2018-11-11T22:33:42.306Z,71.18
2018-11-11T22:36:11.773Z,71.25
2018-11-11T22:38:40.800Z,71.23
2018-11-11T22:41:09.805Z,71.42
2018-11-11T22:43:38.959Z,71.12
2018-11-11T22:46:08.056Z,70.39
2018-11-11T22:48:37.038Z,70.28
2018-11-11T22:51:06.133Z,70.81
2018-11-11T22:53:35.216Z,70.45
2018-11-11T22:56:04.290Z,70.13
2018-11-11T22:58:33.261Z,70.45
2018-11-11T23:01:07.332Z,70.61
2018-11-11T23:03:36.317Z,70.53
2018-11-11T23:06:05.601Z,70.93
2018-11-11T23:08:34.609Z,70.57
2018-11-11T23:11:03.595Z,71.13
2018-11-11T23:13:32.893Z,70.79
2018-11-11T23:16:01.927Z,71.02
2018-11-11T23:18:30.970Z,70.88
2018-11-11T23:20:59.970Z,70.31
2018-11-11T23:23:28.974Z,69.69
2018-11-11T23:25:58.218Z,70.19
2018-11-11T23:28:27.315Z,70.22
2018-11-11T23:30:56.572Z,69.76
2018-11-11T23:33:25.920Z,70.03
2018-11-11T23:35:54.902Z,69.72
2018-11-11T23:38:23.881Z,70.10
2018-11-11T23:40:52.965Z,69.62
2018-11-11T23:43:21.990Z,69.25
2018-11-11T23:45:51.001Z,69.54
2018-11-11T23:48:20.018Z,69.64
2018-11-11T23:50:49.578Z,69.65
2018-11-11T23:53:18.553Z,69.21
2018-11-11T23:55:47.548Z,70.09
2018-11-11T23:58:16.537Z,68.85
